OOCL Kaohsiung — 9V9830 — position and weather

sailwx.info

Track history (hours):
 
Tides and Currents Weather Stations Pressure Air Temp Water Temp Dewpoint Dewpoint Depression Visibility Wind Speed Wind Dir Waves Ship Positions

OOCL Kaohsiung

Last reported at 2016-Jun-25 10:33 UTC. Time now 2016-Jul-01 04:39 UTC.
Position N 40°35' W 068°20'.

Length 280 m; draft 11 m.

Type: Cargo ship. MMSI: 566389000.

Date/timePositionNaut miles runAvg speedWind from/ knotsBaromVisibWave heightAir tempDewpointWater temp
2016-Jun-25 10:33N 40°35' W 068°20'42014.0
2016-Jun-24 04:33N 36°56' W 075°59'1212.3
2016-Jun-24 03:33N 37°00' W 076°14'7 0.5
2016-Jun-23 12:24N 36°55' W 076°20'0 0.0
2016-Jun-23 11:33N 36°55' W 076°20'3 3.1
2016-Jun-23 10:33N 36°58' W 076°20'7 5.7
2016-Jun-23 09:22N 36°60' W 076°12'1113.4
2016-Jun-23 08:33N 36°57' W 075°59'8 8.3
2016-Jun-23 07:33N 36°52' W 075°51'132 5.7
2016-Jun-22 08:33N 34°42' W 075°23'4414.5
2016-Jun-22 05:30N 34°11' W 076°01'1515.6
2016-Jun-22 04:33N 34°00' W 076°14'1716.4
2016-Jun-22 03:31N 33°50' W 076°29'1615.0
2016-Jun-22 02:28N 33°39' W 076°43'20713.7
2016-Jun-21 11:24N 31°54' W 080°15'1112.4
2016-Jun-21 10:33N 31°51' W 080°27'1211.9
2016-Jun-21 09:33N 31°57' W 080°39'10 9.7
2016-Jun-21 08:33N 32°02' W 080°49'10 9.6
2016-Jun-21 07:33N 32°05' W 080°59'8 2.6
2016-Jun-21 04:31N 32°08' W 081°08'0 0.0
2016-Jun-21 03:26N 32°08' W 081°08'0 0.0
2016-Jun-21 02:31N 32°08' W 081°08'0 0.0
2016-Jun-21 01:31N 32°08' W 081°08'0 0.0
2016-Jun-21 00:20N 32°08' W 081°08'0 0.0
2016-Jun-20 23:32N 32°08' W 081°08'0 0.0
2016-Jun-20 22:32N 32°08' W 081°08'0 0.0
2016-Jun-20 21:19N 32°08' W 081°08'0 0.0
2016-Jun-20 20:32N 32°08' W 081°08'0 0.0
2016-Jun-20 19:32N 32°08' W 081°08'0 0.0
2016-Jun-20 18:25N 32°08' W 081°08'0 0.0
2016-Jun-20 17:32N 32°08' W 081°08'0 0.0
2016-Jun-20 16:31N 32°08' W 081°08'0 0.0
2016-Jun-20 15:26N 32°08' W 081°08'0 0.0
2016-Jun-20 14:32N 32°08' W 081°08'0 0.0
2016-Jun-20 13:31N 32°08' W 081°08'0 0.0
2016-Jun-20 12:32N 32°08' W 081°08'0 0.0
2016-Jun-20 11:32N 32°08' W 081°08'1 1.5
2016-Jun-20 10:33N 32°06' W 081°07'4 4.4
2016-Jun-20 09:33N 32°05' W 081°02'8 8.1
2016-Jun-20 08:33N 32°02' W 080°53'1111.2
2016-Jun-20 07:33N 31°57' W 080°41'9 8.9
2016-Jun-20 06:33N 31°53' W 080°32'8 7.4
2016-Jun-20 05:28N 31°52' W 080°22'43111.9
2016-Jun-18 17:06N 37°08' W 074°27'813.6
2016-Jun-18 16:33N 37°15' W 074°25'2814.1
2016-Jun-18 14:34N 37°43' W 074°16'1514.4
2016-Jun-18 13:32N 37°57' W 074°13'1414.5
2016-Jun-18 12:34N 38°11' W 074°08'1414.1
2016-Jun-18 11:34N 38°25' W 074°05'1413.7
2016-Jun-18 10:33N 38°38' W 074°01'1313.4
2016-Jun-18 09:33N 38°51' W 073°58'1413.4
2016-Jun-18 08:33N 39°04' W 073°55'1313.6
2016-Jun-18 07:33N 39°18' W 073°54'1413.5
2016-Jun-18 06:33N 39°31' W 073°51'1413.7
2016-Jun-18 05:33N 39°45' W 073°52'1817.6
2016-Jun-18 04:33N 40°03' W 073°50'1212.1
2016-Jun-18 03:33N 40°15' W 073°49'1110.3
2016-Jun-18 02:32N 40°25' W 073°49'1111.7
2016-Jun-18 01:34N 40°32' W 074°01'8 8.3
2016-Jun-18 00:33N 40°40' W 074°04'1 0.5
2016-Jun-17 23:32N 40°40' W 074°05'0 0.0
2016-Jun-17 22:33N 40°40' W 074°05'0 0.0
2016-Jun-17 21:33N 40°40' W 074°05'0 0.0
2016-Jun-17 20:33N 40°40' W 074°05'0 0.0
2016-Jun-17 19:33N 40°40' W 074°05'0 0.0
2016-Jun-17 18:33N 40°40' W 074°05'0 0.0
2016-Jun-17 17:33N 40°40' W 074°05'0 0.0
2016-Jun-17 16:33N 40°40' W 074°05'0 0.0
2016-Jun-17 15:33N 40°40' W 074°05'0 0.0
2016-Jun-17 14:33N 40°40' W 074°05'0 0.0
2016-Jun-17 13:33N 40°40' W 074°05'0 0.0
2016-Jun-17 12:33N 40°40' W 074°05'0 0.0
2016-Jun-17 11:30N 40°40' W 074°05'0 0.0
2016-Jun-17 10:33N 40°40' W 074°05'0 0.0
2016-Jun-17 09:33N 40°40' W 074°05'0 0.0
2016-Jun-17 08:33N 40°40' W 074°05'0 0.0
2016-Jun-17 07:33N 40°40' W 074°05'0 0.0
2016-Jun-17 06:33N 40°40' W 074°05'0 0.0
2016-Jun-17 05:33N 40°40' W 074°05'0 0.0
2016-Jun-17 04:33N 40°40' W 074°05'0 0.0
2016-Jun-17 03:33N 40°40' W 074°05'0 0.0
2016-Jun-17 02:33N 40°40' W 074°05'0 0.0
2016-Jun-17 01:33N 40°40' W 074°05'0 0.0
2016-Jun-17 00:33N 40°40' W 074°05'0 0.0
2016-Jun-16 23:33N 40°40' W 074°05'0 0.0
2016-Jun-16 22:33N 40°40' W 074°05'0 0.0
2016-Jun-16 21:33N 40°40' W 074°05'2 1.7
2016-Jun-16 20:33N 40°39' W 074°03'1110.8
2016-Jun-16 19:33N 40°30' W 073°56'1010.4
2016-Jun-16 18:33N 40°27' W 073°43'9 9.0
2016-Jun-16 17:33N 40°27' W 073°31'1411.5
2016-Jun-16 16:20N 40°29' W 073°12'  
Track history (hours):
 
Tides and Currents Weather Stations Pressure Air Temp Water Temp Dewpoint Dewpoint Depression Visibility Wind Speed Wind Dir Waves Ship Positions

OOCL Kaohsiung

Last reported at 2016-Jun-25 10:33 UTC. Time now 2016-Jul-01 04:39 UTC.
Position N 40°35' W 068°20'.

Length 280 m; draft 11 m.

Type: Cargo ship. MMSI: 566389000.

Date/timePositionNaut miles runAvg speedWind from/ knotsBaromVisibWave heightAir tempDewpointWater temp
2016-Jun-25 10:33N 40°35' W 068°20'42014.0
2016-Jun-24 04:33N 36°56' W 075°59'1212.3
2016-Jun-24 03:33N 37°00' W 076°14'7 0.5
2016-Jun-23 12:24N 36°55' W 076°20'0 0.0
2016-Jun-23 11:33N 36°55' W 076°20'3 3.1
2016-Jun-23 10:33N 36°58' W 076°20'7 5.7
2016-Jun-23 09:22N 36°60' W 076°12'1113.4
2016-Jun-23 08:33N 36°57' W 075°59'8 8.3
2016-Jun-23 07:33N 36°52' W 075°51'132 5.7
2016-Jun-22 08:33N 34°42' W 075°23'4414.5
2016-Jun-22 05:30N 34°11' W 076°01'1515.6
2016-Jun-22 04:33N 34°00' W 076°14'1716.4
2016-Jun-22 03:31N 33°50' W 076°29'1615.0
2016-Jun-22 02:28N 33°39' W 076°43'20713.7
2016-Jun-21 11:24N 31°54' W 080°15'1112.4
2016-Jun-21 10:33N 31°51' W 080°27'1211.9
2016-Jun-21 09:33N 31°57' W 080°39'10 9.7
2016-Jun-21 08:33N 32°02' W 080°49'10 9.6
2016-Jun-21 07:33N 32°05' W 080°59'8 2.6
2016-Jun-21 04:31N 32°08' W 081°08'0 0.0
2016-Jun-21 03:26N 32°08' W 081°08'0 0.0
2016-Jun-21 02:31N 32°08' W 081°08'0 0.0
2016-Jun-21 01:31N 32°08' W 081°08'0 0.0
2016-Jun-21 00:20N 32°08' W 081°08'0 0.0
2016-Jun-20 23:32N 32°08' W 081°08'0 0.0
2016-Jun-20 22:32N 32°08' W 081°08'0 0.0
2016-Jun-20 21:19N 32°08' W 081°08'0 0.0
2016-Jun-20 20:32N 32°08' W 081°08'0 0.0
2016-Jun-20 19:32N 32°08' W 081°08'0 0.0
2016-Jun-20 18:25N 32°08' W 081°08'0 0.0
2016-Jun-20 17:32N 32°08' W 081°08'0 0.0
2016-Jun-20 16:31N 32°08' W 081°08'0 0.0
2016-Jun-20 15:26N 32°08' W 081°08'0 0.0
2016-Jun-20 14:32N 32°08' W 081°08'0 0.0
2016-Jun-20 13:31N 32°08' W 081°08'0 0.0
2016-Jun-20 12:32N 32°08' W 081°08'0 0.0
2016-Jun-20 11:32N 32°08' W 081°08'1 1.5
2016-Jun-20 10:33N 32°06' W 081°07'4 4.4
2016-Jun-20 09:33N 32°05' W 081°02'8 8.1
2016-Jun-20 08:33N 32°02' W 080°53'1111.2
2016-Jun-20 07:33N 31°57' W 080°41'9 8.9
2016-Jun-20 06:33N 31°53' W 080°32'8 7.4
2016-Jun-20 05:28N 31°52' W 080°22'43111.9
2016-Jun-18 17:06N 37°08' W 074°27'813.6
2016-Jun-18 16:33N 37°15' W 074°25'2814.1
2016-Jun-18 14:34N 37°43' W 074°16'1514.4
2016-Jun-18 13:32N 37°57' W 074°13'1414.5
2016-Jun-18 12:34N 38°11' W 074°08'1414.1
2016-Jun-18 11:34N 38°25' W 074°05'1413.7
2016-Jun-18 10:33N 38°38' W 074°01'1313.4
2016-Jun-18 09:33N 38°51' W 073°58'1413.4
2016-Jun-18 08:33N 39°04' W 073°55'1313.6
2016-Jun-18 07:33N 39°18' W 073°54'1413.5
2016-Jun-18 06:33N 39°31' W 073°51'1413.7
2016-Jun-18 05:33N 39°45' W 073°52'1817.6
2016-Jun-18 04:33N 40°03' W 073°50'1212.1
2016-Jun-18 03:33N 40°15' W 073°49'1110.3
2016-Jun-18 02:32N 40°25' W 073°49'1111.7
2016-Jun-18 01:34N 40°32' W 074°01'8 8.3
2016-Jun-18 00:33N 40°40' W 074°04'1 0.5
2016-Jun-17 23:32N 40°40' W 074°05'0 0.0
2016-Jun-17 22:33N 40°40' W 074°05'0 0.0
2016-Jun-17 21:33N 40°40' W 074°05'0 0.0
2016-Jun-17 20:33N 40°40' W 074°05'0 0.0
2016-Jun-17 19:33N 40°40' W 074°05'0 0.0
2016-Jun-17 18:33N 40°40' W 074°05'0 0.0
2016-Jun-17 17:33N 40°40' W 074°05'0 0.0
2016-Jun-17 16:33N 40°40' W 074°05'0 0.0
2016-Jun-17 15:33N 40°40' W 074°05'0 0.0
2016-Jun-17 14:33N 40°40' W 074°05'0 0.0
2016-Jun-17 13:33N 40°40' W 074°05'0 0.0
2016-Jun-17 12:33N 40°40' W 074°05'0 0.0
2016-Jun-17 11:30N 40°40' W 074°05'0 0.0
2016-Jun-17 10:33N 40°40' W 074°05'0 0.0
2016-Jun-17 09:33N 40°40' W 074°05'0 0.0
2016-Jun-17 08:33N 40°40' W 074°05'0 0.0
2016-Jun-17 07:33N 40°40' W 074°05'0 0.0
2016-Jun-17 06:33N 40°40' W 074°05'0 0.0
2016-Jun-17 05:33N 40°40' W 074°05'0 0.0
2016-Jun-17 04:33N 40°40' W 074°05'0 0.0
2016-Jun-17 03:33N 40°40' W 074°05'0 0.0
2016-Jun-17 02:33N 40°40' W 074°05'0 0.0
2016-Jun-17 01:33N 40°40' W 074°05'0 0.0
2016-Jun-17 00:33N 40°40' W 074°05'0 0.0
2016-Jun-16 23:33N 40°40' W 074°05'0 0.0
2016-Jun-16 22:33N 40°40' W 074°05'0 0.0
2016-Jun-16 21:33N 40°40' W 074°05'2 1.7
2016-Jun-16 20:33N 40°39' W 074°03'1110.8
2016-Jun-16 19:33N 40°30' W 073°56'1010.4
2016-Jun-16 18:33N 40°27' W 073°43'9 9.0
2016-Jun-16 17:33N 40°27' W 073°31'1411.5
2016-Jun-16 16:20N 40°29' W 073°12'  

Dump ship's entire track history